Time;durP1;ratioP1;P1;durP2;ratioP2;P2;SDS_P1;SDS_P2;PMS_P1;PMS_P2;Temp;Humidity;BMP_temperature;BMP_pressure;BME280_temperature;BME280_humidity;BME280_pressure;Samples;Min_cycle;Max_cycle;Signal;HPM_P1;HPM_P2
2022/06/19 00:00:42;;;;;;;4.80;4.13;;;29.60;51.50;;;;;;5088894;27;20550;-48
2022/06/19 00:03:27;;;;;;;4.40;4.10;;;29.60;51.30;;;;;;5086053;28;21046;-48
2022/06/19 00:06:08;;;;;;;4.63;4.23;;;29.60;51.30;;;;;;5107518;27;20543;-48
2022/06/19 00:08:51;;;;;;;4.83;3.90;;;29.60;51.30;;;;;;5109446;27;21117;-47
2022/06/19 00:11:31;;;;;;;5.07;4.67;;;29.60;51.40;;;;;;5073136;27;20594;-48
2022/06/19 00:14:10;;;;;;;8.13;4.20;;;29.60;51.30;;;;;;5139769;27;1226534;-46
2022/06/19 00:16:52;;;;;;;4.50;4.10;;;29.60;51.10;;;;;;5106087;27;20542;-47
2022/06/19 00:19:33;;;;;;;4.77;4.37;;;29.60;51.30;;;;;;5127346;27;20524;-48
2022/06/19 00:22:14;;;;;;;5.10;4.60;;;29.60;51.10;;;;;;5067875;27;20544;-48
2022/06/19 00:24:56;;;;;;;5.57;4.37;;;29.60;50.80;;;;;;5075852;27;21043;-48
2022/06/19 00:27:38;;;;;;;4.23;3.80;;;29.70;51.00;;;;;;5106901;27;21048;-48
2022/06/19 00:30:19;;;;;;;4.00;3.70;;;29.60;51.00;;;;;;5092677;27;20592;-48
2022/06/19 00:36:03;;;;;;;3.90;3.60;;;29.60;50.90;;;;;;4850361;29;20444;-66
2022/06/19 00:38:43;;;;;;;4.83;4.33;;;29.60;52.20;;;;;;5079210;28;20877;-47
2022/06/19 00:41:23;;;;;;;4.07;3.40;;;29.60;50.80;;;;;;5064450;28;20596;-49
2022/06/19 00:44:07;;;;;;;4.67;3.40;;;29.60;51.00;;;;;;5107394;27;20580;-47
2022/06/19 00:46:52;;;;;;;4.00;3.60;;;29.60;50.80;;;;;;5063074;27;20608;-48
2022/06/19 00:49:34;;;;;;;7.17;4.07;;;29.60;50.90;;;;;;5085986;27;20934;-48
2022/06/19 00:52:18;;;;;;;4.43;4.03;;;29.60;50.90;;;;;;5064511;27;20598;-49
2022/06/19 00:55:02;;;;;;;3.70;3.40;;;29.60;50.80;;;;;;5077912;28;20595;-49
2022/06/19 00:57:46;;;;;;;3.90;3.60;;;29.60;51.00;;;;;;5087085;27;20516;-49
2022/06/19 01:00:29;;;;;;;4.87;4.47;;;29.60;51.10;;;;;;5075693;28;20550;-49
2022/06/19 01:03:15;;;;;;;4.20;3.70;;;29.60;50.90;;;;;;5109410;22;20630;-50
2022/06/19 01:05:56;;;;;;;4.00;3.70;;;29.60;51.00;;;;;;5078985;27;20583;-50
2022/06/19 01:08:37;;;;;;;6.13;3.50;;;29.60;51.00;;;;;;5148513;27;20519;-49
2022/06/19 01:11:20;;;;;;;5.10;4.03;;;29.60;50.90;;;;;;5063272;27;20542;-49
2022/06/19 01:14:03;;;;;;;4.77;3.57;;;29.60;50.80;;;;;;5120359;27;20538;-49
2022/06/19 01:16:43;;;;;;;4.03;3.73;;;29.60;50.80;;;;;;5102421;27;20539;-49
2022/06/19 01:19:28;;;;;;;3.60;3.40;;;29.60;50.90;;;;;;5128088;27;20525;-51
2022/06/19 01:22:19;;;;;;;4.03;3.73;;;29.60;51.00;;;;;;5064212;28;21093;-48
2022/06/19 01:25:08;;;;;;;5.07;3.27;;;29.60;51.00;;;;;;5069269;28;20599;-49
2022/06/19 01:30:54;;;;;;;3.77;3.47;;;29.60;50.80;;;;;;5073650;28;20530;-47
2022/06/19 01:33:48;;;;;;;4.73;3.20;;;29.60;50.80;;;;;;5124427;27;20552;-50
2022/06/19 01:36:29;;;;;;;5.93;3.30;;;29.60;50.90;;;;;;5115281;27;20545;-48
2022/06/19 01:39:09;;;;;;;3.20;3.00;;;29.60;50.80;;;;;;5128278;27;20516;-48
2022/06/19 01:41:49;;;;;;;3.23;2.90;;;29.60;50.90;;;;;;5056802;28;20580;-49
2022/06/19 01:44:30;;;;;;;6.37;3.90;;;29.60;50.80;;;;;;5074005;27;20548;-49
2022/06/19 01:47:11;;;;;;;6.20;3.60;;;29.60;50.90;;;;;;5076805;27;1213464;-50
2022/06/19 01:49:54;;;;;;;3.60;3.30;;;29.60;51.00;;;;;;5072887;27;20535;-51
2022/06/19 01:52:38;;;;;;;3.40;3.17;;;29.60;51.20;;;;;;5086631;28;20531;-50
2022/06/19 01:55:21;;;;;;;3.33;3.13;;;29.50;51.40;;;;;;5076869;27;20538;-48
2022/06/19 01:58:02;;;;;;;3.80;3.50;;;29.60;51.40;;;;;;5086978;28;20574;-48
2022/06/19 02:00:45;;;;;;;2.87;2.67;;;29.50;51.00;;;;;;5082837;27;21053;-51
2022/06/19 02:03:30;;;;;;;3.90;3.60;;;29.60;52.40;;;;;;5084533;28;20524;-49
2022/06/19 02:06:13;;;;;;;3.53;3.23;;;29.50;51.30;;;;;;5065970;27;20550;-49
2022/06/19 02:08:55;;;;;;;3.20;2.90;;;29.50;51.30;;;;;;5072226;27;20579;-50
2022/06/19 02:11:36;;;;;;;3.93;3.33;;;29.50;51.30;;;;;;5097779;27;20545;-47
2022/06/19 02:14:19;;;;;;;3.67;3.37;;;29.50;51.10;;;;;;5082475;27;20597;-47
2022/06/19 02:17:04;;;;;;;5.60;3.60;;;29.50;51.30;;;;;;5137898;27;20542;-49
2022/06/19 02:19:44;;;;;;;5.33;3.80;;;29.50;51.20;;;;;;5087055;27;20523;-50
2022/06/19 02:22:26;;;;;;;3.57;3.27;;;29.50;51.30;;;;;;5073244;27;21048;-50
2022/06/19 02:25:09;;;;;;;4.63;3.43;;;29.60;51.50;;;;;;5068597;28;20618;-49
2022/06/19 02:27:50;;;;;;;8.07;4.13;;;29.50;51.50;;;;;;5087135;27;21048;-49
2022/06/19 02:30:30;;;;;;;3.87;3.57;;;29.50;51.40;;;;;;5084204;27;20951;-48
2022/06/19 02:33:15;;;;;;;3.93;3.73;;;29.50;52.70;;;;;;5082973;28;20949;-49
2022/06/19 02:35:54;;;;;;;3.47;3.17;;;29.50;51.60;;;;;;5070787;28;20547;-50
2022/06/19 02:38:34;;;;;;;3.40;2.97;;;29.50;51.80;;;;;;5071006;27;20610;-49
2022/06/19 02:41:20;;;;;;;3.30;2.97;;;29.50;51.90;;;;;;5094584;27;20951;-49
2022/06/19 02:44:02;;;;;;;2.87;2.67;;;29.50;51.90;;;;;;5131315;27;20679;-50
2022/06/19 02:46:42;;;;;;;4.77;3.00;;;29.40;52.00;;;;;;5113612;27;1235306;-55
2022/06/19 02:49:22;;;;;;;4.47;3.50;;;29.50;52.10;;;;;;5130051;27;1279592;-49
2022/06/19 02:52:04;;;;;;;4.30;4.00;;;29.40;51.90;;;;;;5046021;28;20968;-49
2022/06/19 02:54:44;;;;;;;3.60;3.30;;;29.40;51.80;;;;;;5075759;27;20537;-52
2022/06/19 02:57:25;;;;;;;3.83;3.20;;;29.40;52.10;;;;;;5148087;27;20512;-45
2022/06/19 03:00:08;;;;;;;4.50;3.63;;;29.40;52.10;;;;;;5082320;27;20874;-49
2022/06/19 03:02:49;;;;;;;3.47;3.17;;;29.40;51.80;;;;;;5127636;27;20517;-50
2022/06/19 03:05:31;;;;;;;4.60;3.80;;;29.40;52.00;;;;;;5051976;27;20544;-48
2022/06/19 03:08:11;;;;;;;4.47;3.57;;;29.40;51.80;;;;;;5086935;27;20520;-49
2022/06/19 03:10:53;;;;;;;4.20;3.80;;;29.40;51.80;;;;;;5072873;27;20600;-49
2022/06/19 03:13:32;;;;;;;5.43;3.87;;;29.40;51.70;;;;;;5110998;27;20935;-51
2022/06/19 03:16:14;;;;;;;4.93;3.10;;;29.40;51.80;;;;;;5061367;27;20545;-49
2022/06/19 03:18:57;;;;;;;3.63;2.70;;;29.40;51.80;;;;;;5087065;27;20581;-50
2022/06/19 03:21:37;;;;;;;3.60;3.30;;;29.30;51.30;;;;;;5068699;28;21110;-50
2022/06/19 03:24:18;;;;;;;3.07;2.87;;;29.30;51.60;;;;;;5067922;28;20876;-48
2022/06/19 03:26:58;;;;;;;2.70;2.50;;;29.30;51.30;;;;;;5069434;27;20614;-49
2022/06/19 03:29:40;;;;;;;3.40;3.10;;;29.30;51.40;;;;;;5085490;27;20531;-48
2022/06/19 03:32:20;;;;;;;3.30;2.90;;;29.30;51.30;;;;;;5062862;27;1358831;-49
2022/06/19 03:35:01;;;;;;;4.40;2.93;;;29.30;51.30;;;;;;5110431;27;20555;-49
2022/06/19 03:37:42;;;;;;;6.90;3.10;;;29.30;51.20;;;;;;5113625;27;20518;-50
2022/06/19 03:40:24;;;;;;;3.33;2.33;;;29.20;51.00;;;;;;5081483;28;21035;-50
2022/06/19 03:43:05;;;;;;;2.93;2.73;;;29.30;51.20;;;;;;5119906;27;21178;-48
2022/06/19 03:45:47;;;;;;;4.13;2.57;;;29.30;51.20;;;;;;5067604;28;20645;-49
2022/06/19 03:48:28;;;;;;;3.20;3.00;;;29.20;51.00;;;;;;5128069;27;20527;-47
2022/06/19 03:51:10;;;;;;;4.30;3.17;;;29.20;51.10;;;;;;5073364;27;20533;-51
2022/06/19 03:53:51;;;;;;;3.40;3.10;;;29.20;51.00;;;;;;5107332;27;21126;-49
2022/06/19 03:56:34;;;;;;;4.15;2.83;;;29.20;50.90;;;;;;5069686;27;20417;-49
2022/06/19 03:59:15;;;;;;;3.07;2.80;;;29.20;50.50;;;;;;5165681;27;21080;-48
2022/06/19 04:01:56;;;;;;;2.63;2.43;;;29.20;50.50;;;;;;5054377;27;20541;-48
2022/06/19 04:04:40;;;;;;;3.00;2.33;;;29.20;50.70;;;;;;5083259;28;20933;-48
2022/06/19 04:07:21;;;;;;;2.43;2.23;;;29.20;50.80;;;;;;5066920;27;20592;-48
2022/06/19 04:10:03;;;;;;;3.00;2.23;;;29.20;50.60;;;;;;5125373;27;20641;-50
2022/06/19 04:12:44;;;;;;;3.03;2.73;;;29.10;50.80;;;;;;5112784;27;20940;-50
2022/06/19 04:15:25;;;;;;;3.43;2.70;;;29.20;50.80;;;;;;5061692;28;20585;-48
2022/06/19 04:18:07;;;;;;;3.97;2.60;;;29.10;50.80;;;;;;5114369;27;20579;-49
2022/06/19 04:20:48;;;;;;;2.93;2.63;;;29.10;50.40;;;;;;5110619;27;20523;-49
2022/06/19 04:23:29;;;;;;;4.67;2.63;;;29.10;50.60;;;;;;5080237;27;20924;-48
2022/06/19 04:26:13;;;;;;;3.40;2.53;;;29.20;50.60;;;;;;5066813;28;20657;-52
2022/06/19 04:28:54;;;;;;;5.17;2.30;;;29.10;50.00;;;;;;5128745;27;20653;-49
2022/06/19 04:31:35;;;;;;;3.80;2.53;;;29.10;50.40;;;;;;5047154;28;20620;-49
2022/06/19 04:34:17;;;;;;;3.57;2.70;;;29.10;50.30;;;;;;5084304;28;20539;-48
2022/06/19 04:36:58;;;;;;;4.40;2.83;;;29.10;50.50;;;;;;5109521;27;20553;-51
2022/06/19 04:39:39;;;;;;;2.03;1.93;;;29.10;50.50;;;;;;5107982;27;20519;-49
2022/06/19 04:42:19;;;;;;;2.83;2.63;;;29.10;50.40;;;;;;5066989;27;20594;-47
2022/06/19 04:45:01;;;;;;;6.10;2.80;;;29.10;50.60;;;;;;5063362;27;20550;-47
2022/06/19 04:47:42;;;;;;;3.60;2.67;;;29.10;50.50;;;;;;5129129;27;20521;-47
2022/06/19 04:50:23;;;;;;;2.13;1.93;;;29.10;50.60;;;;;;5096896;27;20532;-47
2022/06/19 04:53:05;;;;;;;2.80;2.60;;;29.10;50.50;;;;;;5112423;27;20578;-50
2022/06/19 04:55:46;;;;;;;3.67;2.50;;;29.10;50.40;;;;;;5078774;27;20538;-51
2022/06/19 04:58:28;;;;;;;2.70;2.50;;;29.10;50.30;;;;;;5083648;27;20590;-48
2022/06/19 05:01:12;;;;;;;3.77;2.97;;;29.10;50.60;;;;;;5097686;27;20540;-48
2022/06/19 05:03:57;;;;;;;3.30;2.23;;;29.10;50.30;;;;;;5149053;27;21105;-49
2022/06/19 05:06:38;;;;;;;3.10;2.20;;;29.10;50.20;;;;;;5070254;27;20567;-49
2022/06/19 05:09:20;;;;;;;3.40;2.57;;;29.00;50.10;;;;;;5127951;27;20598;-49
2022/06/19 05:12:01;;;;;;;2.50;2.30;;;29.00;50.40;;;;;;5134287;27;20576;-50
2022/06/19 05:14:43;;;;;;;2.50;2.30;;;29.00;50.80;;;;;;5090358;27;21037;-50
2022/06/19 05:17:24;;;;;;;3.00;2.40;;;29.00;50.80;;;;;;5067190;27;20566;-49
2022/06/19 05:20:06;;;;;;;2.30;2.10;;;29.00;51.00;;;;;;5102464;27;21042;-49
2022/06/19 05:22:47;;;;;;;2.40;2.20;;;29.00;50.40;;;;;;5127393;27;20586;-50
2022/06/19 05:25:28;;;;;;;2.10;1.90;;;29.00;50.50;;;;;;5078809;27;20617;-48
2022/06/19 05:28:10;;;;;;;3.77;2.30;;;29.00;50.60;;;;;;5084046;27;21143;-49
2022/06/19 05:30:51;;;;;;;2.00;1.90;;;29.00;50.50;;;;;;5106162;27;20583;-52
2022/06/19 05:33:34;;;;;;;4.10;2.40;;;29.00;50.60;;;;;;5125983;27;20513;-49
2022/06/19 05:36:15;;;;;;;2.70;2.20;;;29.00;50.60;;;;;;5087762;27;1355776;-47
2022/06/19 05:38:55;;;;;;;2.87;2.37;;;29.00;50.60;;;;;;5087649;27;20519;-50
2022/06/19 05:41:39;;;;;;;2.83;2.40;;;29.00;50.80;;;;;;5073305;27;20686;-49
2022/06/19 05:44:20;;;;;;;3.10;2.50;;;29.00;50.60;;;;;;5068299;28;21201;-50
2022/06/19 05:47:01;;;;;;;2.23;2.00;;;29.00;50.60;;;;;;5050531;28;20553;-50
2022/06/19 05:49:42;;;;;;;2.43;2.23;;;29.00;50.50;;;;;;5087344;28;20519;-49
2022/06/19 05:52:25;;;;;;;2.93;2.60;;;29.00;50.80;;;;;;5066446;27;20549;-49
2022/06/19 05:55:06;;;;;;;2.10;2.00;;;29.00;50.40;;;;;;5114934;27;20540;-50
2022/06/19 05:57:46;;;;;;;2.97;2.10;;;29.00;50.40;;;;;;5074066;27;20575;-48
2022/06/19 06:00:28;;;;;;;4.77;2.30;;;29.00;50.80;;;;;;5075589;28;20538;-49
2022/06/19 06:03:14;;;;;;;3.33;2.20;;;29.00;50.80;;;;;;5087577;28;20947;-50
2022/06/19 06:05:53;;;;;;;2.87;1.97;;;29.00;50.50;;;;;;5112167;27;1248552;-48
2022/06/19 06:08:35;;;;;;;2.00;1.90;;;29.00;50.20;;;;;;5134600;27;1207441;-49
2022/06/19 06:11:16;;;;;;;2.30;2.10;;;29.00;50.20;;;;;;5095789;27;20540;-47
2022/06/19 06:13:57;;;;;;;3.23;2.20;;;29.00;50.20;;;;;;5078210;27;20548;-48
2022/06/19 06:16:38;;;;;;;2.30;2.10;;;29.00;50.20;;;;;;5072061;27;20627;-50
2022/06/19 06:19:19;;;;;;;4.70;2.00;;;29.00;50.40;;;;;;5087445;27;20687;-50
2022/06/19 06:22:01;;;;;;;2.63;2.40;;;29.00;50.20;;;;;;5072530;27;21141;-47
2022/06/19 06:24:42;;;;;;;2.40;2.20;;;29.00;50.10;;;;;;5073935;28;20590;-50
2022/06/19 06:27:23;;;;;;;3.10;1.90;;;29.00;49.80;;;;;;5058577;27;20680;-49
2022/06/19 06:30:04;;;;;;;2.13;1.93;;;28.90;50.00;;;;;;5082051;27;20533;-49
2022/06/19 06:32:45;;;;;;;2.80;2.13;;;29.00;50.20;;;;;;5107158;27;20518;-51
2022/06/19 06:35:26;;;;;;;3.10;1.80;;;28.90;50.00;;;;;;5057204;28;20594;-50
2022/06/19 06:38:06;;;;;;;2.90;1.97;;;28.90;49.90;;;;;;5089364;27;20589;-51
2022/06/19 06:40:48;;;;;;;3.17;2.00;;;29.00;50.00;;;;;;5065506;27;20982;-47
2022/06/19 06:43:29;;;;;;;2.30;1.90;;;28.90;49.80;;;;;;5085383;28;20577;-50
2022/06/19 06:46:10;;;;;;;2.40;2.00;;;28.90;49.70;;;;;;5072631;27;21133;-50
2022/06/19 06:48:54;;;;;;;2.20;2.00;;;28.90;49.80;;;;;;5087745;27;20566;-47
2022/06/19 06:51:35;;;;;;;2.10;1.90;;;28.90;49.70;;;;;;5051555;27;20605;-49
2022/06/19 06:54:16;;;;;;;2.30;1.93;;;28.90;49.70;;;;;;5110375;27;20547;-52
2022/06/19 06:56:57;;;;;;;3.30;2.20;;;28.90;49.60;;;;;;5061679;27;20691;-50
2022/06/19 06:59:38;;;;;;;3.67;2.10;;;28.90;49.40;;;;;;5118886;27;20936;-49
2022/06/19 07:02:19;;;;;;;2.20;1.60;;;28.90;49.60;;;;;;5067365;27;20540;-49
2022/06/19 07:05:00;;;;;;;3.13;2.30;;;28.90;49.30;;;;;;5119397;27;20948;-49
2022/06/19 07:07:42;;;;;;;2.60;1.70;;;28.90;49.10;;;;;;5107804;27;20584;-50
2022/06/19 07:10:24;;;;;;;3.40;2.40;;;28.90;49.40;;;;;;5080715;27;20536;-50
2022/06/19 07:13:04;;;;;;;2.13;1.87;;;28.90;49.40;;;;;;5106790;27;20919;-51
2022/06/19 07:15:46;;;;;;;2.30;2.10;;;28.90;49.30;;;;;;4643673;22;20629;-48
2022/06/19 07:18:29;;;;;;;3.20;2.00;;;28.80;48.90;;;;;;5087369;27;20573;-48
2022/06/19 07:21:12;;;;;;;2.63;1.83;;;28.80;48.90;;;;;;5054826;28;21148;-48
2022/06/19 07:23:53;;;;;;;2.40;2.20;;;28.80;48.50;;;;;;5092084;28;20532;-68
2022/06/19 07:26:35;;;;;;;2.83;2.03;;;28.70;48.60;;;;;;5068465;27;20534;-48
2022/06/19 07:29:16;;;;;;;2.30;2.10;;;28.70;48.90;;;;;;5079419;27;20566;-48
2022/06/19 07:31:58;;;;;;;2.60;1.90;;;28.70;49.10;;;;;;5072845;27;20558;-49
2022/06/19 07:34:41;;;;;;;5.20;2.13;;;28.70;48.50;;;;;;5073881;27;21127;-48
2022/06/19 07:37:22;;;;;;;2.90;1.70;;;28.70;48.80;;;;;;5051491;27;20575;-48
2022/06/19 07:40:04;;;;;;;2.50;1.90;;;28.70;48.50;;;;;;5126941;27;20537;-48
2022/06/19 07:42:45;;;;;;;3.40;1.90;;;28.70;48.30;;;;;;5108413;27;20563;-47
2022/06/19 07:45:26;;;;;;;2.47;2.27;;;28.70;48.50;;;;;;5111897;27;20541;-47
2022/06/19 07:51:11;;;;;;;3.20;2.13;;;28.70;48.50;;;;;;5072860;27;20537;-48
2022/06/19 07:53:53;;;;;;;3.00;1.90;;;28.70;48.70;;;;;;5123379;27;20592;-47
2022/06/19 07:56:35;;;;;;;4.03;2.00;;;28.60;48.40;;;;;;5060628;27;20971;-48
2022/06/19 07:59:17;;;;;;;3.30;2.20;;;28.70;48.30;;;;;;5087487;27;20605;-48
2022/06/19 08:01:58;;;;;;;4.17;1.93;;;28.70;48.40;;;;;;5046497;28;21065;-47
2022/06/19 08:04:48;;;;;;;2.17;1.80;;;28.60;48.30;;;;;;5079127;27;20558;-48
2022/06/19 08:07:30;;;;;;;2.10;1.90;;;28.60;48.30;;;;;;5086875;27;20548;-48
2022/06/19 08:10:16;;;;;;;3.77;2.33;;;28.60;48.90;;;;;;5083415;28;20537;-48
2022/06/19 08:12:58;;;;;;;2.57;2.13;;;28.60;47.80;;;;;;5087215;28;20927;-48
2022/06/19 08:15:39;;;;;;;2.77;1.60;;;28.60;48.00;;;;;;4999109;28;20574;-47
2022/06/19 08:18:20;;;;;;;2.07;1.87;;;28.60;47.50;;;;;;5086432;27;20528;-48
2022/06/19 08:21:02;;;;;;;4.13;2.13;;;28.60;47.80;;;;;;5080683;27;20962;-48
2022/06/19 08:23:43;;;;;;;2.07;1.87;;;28.60;47.60;;;;;;5085966;28;20562;-48
2022/06/19 08:26:24;;;;;;;3.07;1.93;;;28.60;47.60;;;;;;5066903;27;20540;-48
2022/06/19 08:29:06;;;;;;;4.97;2.00;;;28.60;47.30;;;;;;5126347;27;20559;-48
2022/06/19 08:31:47;;;;;;;2.33;1.80;;;28.60;47.50;;;;;;5049710;27;20577;-48
2022/06/19 08:34:29;;;;;;;3.03;1.87;;;28.60;47.30;;;;;;5076738;28;20528;-47
2022/06/19 08:37:11;;;;;;;2.80;2.30;;;28.60;47.50;;;;;;5075946;27;20809;-45
2022/06/19 08:39:53;;;;;;;2.40;1.80;;;28.60;47.80;;;;;;5128478;27;20533;-47
2022/06/19 08:42:46;;;;;;;3.23;1.80;;;28.60;48.00;;;;;;5076125;27;20519;-49
2022/06/19 08:45:37;;;;;;;2.40;1.90;;;28.60;47.80;;;;;;5065801;27;20610;-47
2022/06/19 08:48:36;;;;;;;2.70;1.70;;;28.60;47.50;;;;;;5087731;28;20925;-47
2022/06/19 08:51:30;;;;;;;3.13;1.90;;;28.60;47.50;;;;;;5095895;27;21081;-47
2022/06/19 08:54:28;;;;;;;3.00;1.60;;;28.60;47.80;;;;;;5079832;28;20914;-48
2022/06/19 08:57:18;;;;;;;3.00;1.83;;;28.60;47.50;;;;;;5066302;27;20631;-46
2022/06/19 09:00:07;;;;;;;2.40;2.07;;;28.60;47.80;;;;;;5080822;27;20556;-48
2022/06/19 09:03:04;;;;;;;6.30;2.40;;;28.60;48.10;;;;;;5086280;28;20656;-48
2022/06/19 09:05:52;;;;;;;2.27;2.00;;;28.60;48.10;;;;;;5062447;28;20546;-48
2022/06/19 09:09:15;;;;;;;2.43;1.50;;;28.60;48.00;;;;;;5080479;27;20557;-47
2022/06/19 09:12:06;;;;;;;3.53;1.87;;;28.50;48.10;;;;;;5056504;27;20683;-48
2022/06/19 09:14:57;;;;;;;3.20;1.93;;;28.50;48.10;;;;;;5113437;27;20545;-46
2022/06/19 09:17:47;;;;;;;4.80;2.40;;;28.50;48.00;;;;;;5085299;28;21122;-49
2022/06/19 09:20:40;;;;;;;2.67;2.03;;;28.50;48.00;;;;;;5119858;27;21087;-48
2022/06/19 09:23:40;;;;;;;2.00;1.80;;;28.50;48.10;;;;;;5086667;27;20607;-45
2022/06/19 09:26:27;;;;;;;2.20;1.50;;;28.50;48.10;;;;;;5071631;27;20681;-47
2022/06/19 09:29:13;;;;;;;2.90;2.00;;;28.50;48.30;;;;;;5067603;28;20537;-48
2022/06/19 09:31:58;;;;;;;2.40;1.80;;;28.50;48.40;;;;;;5071397;27;20606;-48
2022/06/19 09:34:53;;;;;;;2.27;1.53;;;28.50;48.30;;;;;;5121442;27;20594;-47
2022/06/19 09:37:39;;;;;;;2.97;1.70;;;28.50;48.50;;;;;;5107296;27;20575;-47
2022/06/19 09:40:24;;;;;;;3.10;2.00;;;28.50;48.20;;;;;;5119676;27;20600;-47
2022/06/19 09:43:20;;;;;;;2.10;2.00;;;28.50;48.60;;;;;;5093445;28;20532;-48
2022/06/19 09:46:03;;;;;;;2.23;1.93;;;28.50;48.40;;;;;;5054913;28;20609;-48
2022/06/19 09:48:53;;;;;;;2.43;1.73;;;28.50;48.20;;;;;;5087611;28;20580;-48
2022/06/19 09:51:37;;;;;;;3.50;2.13;;;28.50;48.40;;;;;;5055123;28;20598;-47
2022/06/19 09:54:23;;;;;;;2.00;1.83;;;28.50;47.50;;;;;;5096342;27;21271;-48
2022/06/19 09:57:10;;;;;;;2.10;1.90;;;28.50;48.50;;;;;;5069979;27;20553;-47
2022/06/19 09:59:55;;;;;;;1.80;1.70;;;28.50;48.10;;;;;;5108150;27;20598;-48
2022/06/19 10:02:44;;;;;;;2.80;1.30;;;28.50;48.90;;;;;;5150239;27;21130;-47
2022/06/19 10:05:34;;;;;;;3.23;2.10;;;28.50;48.90;;;;;;5064579;28;20542;-47
2022/06/19 10:08:20;;;;;;;2.60;1.93;;;28.50;48.50;;;;;;5086025;28;20523;-47
2022/06/19 10:11:07;;;;;;;1.63;1.53;;;28.40;48.50;;;;;;5111979;27;20568;-46
2022/06/19 10:13:53;;;;;;;2.07;1.87;;;28.40;48.30;;;;;;5127052;27;20517;-47
2022/06/19 10:16:45;;;;;;;2.53;1.90;;;28.40;47.90;;;;;;5030606;28;20574;-46
2022/06/19 10:19:34;;;;;;;2.03;1.80;;;28.40;47.50;;;;;;5107033;27;20543;-46
2022/06/19 10:22:41;;;;;;;4.50;2.60;;;28.40;48.30;;;;;;5069548;27;20582;-47
2022/06/19 10:25:38;;;;;;;1.73;1.50;;;28.40;48.30;;;;;;5116068;27;20564;-47
2022/06/19 10:28:30;;;;;;;2.70;1.70;;;28.40;48.50;;;;;;5066165;28;21063;-47
2022/06/19 10:31:20;;;;;;;1.90;1.80;;;28.40;48.70;;;;;;5077798;27;21122;-47
2022/06/19 10:34:13;;;;;;;2.57;1.63;;;28.40;49.10;;;;;;5101606;27;20543;-48
2022/06/19 10:37:00;;;;;;;2.03;1.67;;;28.40;48.00;;;;;;5077151;27;20595;-49
2022/06/19 10:39:54;;;;;;;2.80;2.10;;;28.40;48.60;;;;;;5075222;27;20900;-48
2022/06/19 10:42:44;;;;;;;1.93;1.53;;;28.40;48.80;;;;;;5110843;27;20564;-47
2022/06/19 10:45:34;;;;;;;3.50;1.67;;;28.40;49.10;;;;;;5060077;28;20534;-49
2022/06/19 10:48:24;;;;;;;2.03;1.80;;;28.40;49.20;;;;;;5074090;27;20607;-47
2022/06/19 10:51:22;;;;;;;2.80;1.70;;;28.40;49.20;;;;;;5073375;27;20657;-47
2022/06/19 10:54:19;;;;;;;2.03;1.60;;;28.40;49.20;;;;;;5113642;27;20584;-47
2022/06/19 10:57:16;;;;;;;1.50;1.40;;;28.40;49.20;;;;;;5067845;27;20602;-47
2022/06/19 10:59:56;;;;;;;2.43;1.63;;;28.40;49.30;;;;;;5133453;27;1327306;-46
2022/06/19 11:05:50;;;;;;;1.83;1.47;;;28.40;49.40;;;;;;5050665;27;20578;-48
2022/06/19 11:08:35;;;;;;;3.10;1.70;;;28.40;49.60;;;;;;5118318;27;20534;-47
2022/06/19 11:11:19;;;;;;;2.60;1.50;;;28.40;49.60;;;;;;5096450;27;20528;-48
2022/06/19 11:14:08;;;;;;;1.63;1.50;;;28.40;49.40;;;;;;5106742;27;20596;-46
2022/06/19 11:16:56;;;;;;;2.83;2.03;;;28.40;49.60;;;;;;5092608;27;20525;-48
2022/06/19 11:19:41;;;;;;;1.50;1.40;;;28.40;49.60;;;;;;5106130;27;20559;-46
2022/06/19 11:22:41;;;;;;;2.03;1.63;;;28.40;49.80;;;;;;5066302;28;20552;-47
2022/06/19 11:25:39;;;;;;;1.50;1.40;;;28.40;49.60;;;;;;5104823;27;20551;-48
2022/06/19 11:28:21;;;;;;;1.93;1.73;;;28.40;49.60;;;;;;5073825;27;20540;-47
2022/06/19 11:31:10;;;;;;;1.77;1.67;;;28.40;48.90;;;;;;5116647;27;20589;-47
2022/06/19 11:33:53;;;;;;;1.80;1.70;;;28.40;49.30;;;;;;5086822;28;20593;-48
2022/06/19 11:36:36;;;;;;;2.67;1.60;;;28.40;49.60;;;;;;5087229;27;1219583;-47
2022/06/19 11:39:35;;;;;;;1.83;1.50;;;28.40;49.40;;;;;;5109683;27;20576;-46
2022/06/19 11:42:35;;;;;;;2.77;1.80;;;28.40;49.30;;;;;;5066870;28;20575;-47
2022/06/19 11:45:29;;;;;;;2.27;2.00;;;28.40;49.30;;;;;;5102330;27;20548;-47
2022/06/19 11:48:14;;;;;;;2.35;1.70;;;28.40;49.40;;;;;;5126915;27;20495;-49
2022/06/19 11:50:56;;;;;;;3.70;1.97;;;28.40;49.40;;;;;;5102582;27;20961;-48
2022/06/19 11:53:42;;;;;;;2.60;1.70;;;28.40;49.50;;;;;;5070759;28;20959;-47
2022/06/19 11:56:32;;;;;;;2.40;1.90;;;28.40;49.60;;;;;;5059982;27;22632;-48
2022/06/19 11:59:32;;;;;;;2.17;1.70;;;28.40;49.40;;;;;;5084104;27;20516;-49
2022/06/19 12:02:29;;;;;;;2.33;1.53;;;28.40;49.50;;;;;;4971614;28;20578;-48
2022/06/19 12:05:27;;;;;;;2.03;1.77;;;28.40;49.70;;;;;;5069208;28;20606;-48
2022/06/19 12:08:19;;;;;;;4.60;2.47;;;28.40;49.50;;;;;;5110068;27;21120;-47
2022/06/19 12:11:01;;;;;;;4.77;2.93;;;28.30;46.40;;;;;;5097470;27;20532;-48
2022/06/19 12:13:56;;;;;;;7.27;2.53;;;28.10;43.30;;;;;;5117646;27;20535;-47
2022/06/19 12:16:38;;;;;;;5.73;2.70;;;28.00;44.80;;;;;;5039292;27;20950;-48
2022/06/19 12:19:25;;;;;;;5.43;2.47;;;28.00;46.10;;;;;;5147131;27;20556;-46
2022/06/19 12:22:07;;;;;;;5.30;2.37;;;28.00;46.80;;;;;;5072097;27;20648;-47
2022/06/19 12:24:54;;;;;;;3.90;2.87;;;28.00;46.90;;;;;;5123354;27;20662;-48
2022/06/19 12:27:42;;;;;;;4.70;2.70;;;28.10;47.20;;;;;;5089076;27;20645;-48
2022/06/19 12:30:30;;;;;;;4.33;2.50;;;28.10;47.00;;;;;;5115013;27;20530;-48
2022/06/19 12:33:19;;;;;;;4.70;2.93;;;28.20;47.40;;;;;;5085195;28;20564;-48
2022/06/19 12:36:01;;;;;;;2.90;2.30;;;28.20;47.20;;;;;;5100105;27;20579;-47
2022/06/19 12:38:43;;;;;;;3.20;2.13;;;28.20;47.50;;;;;;5107902;27;20852;-49
2022/06/19 12:41:44;;;;;;;3.50;1.70;;;28.20;47.70;;;;;;5070111;27;20555;-47
2022/06/19 12:44:50;;;;;;;4.03;2.20;;;28.20;47.30;;;;;;5084749;28;20578;-47
2022/06/19 12:47:38;;;;;;;2.37;1.80;;;28.30;47.80;;;;;;5087203;28;20574;-46
2022/06/19 12:50:43;;;;;;;2.83;2.63;;;28.30;47.50;;;;;;5115536;27;20585;-47
2022/06/19 12:54:10;;;;;;;2.90;1.60;;;28.30;47.80;;;;;;5106394;27;20544;-47
2022/06/19 12:57:07;;;;;;;2.40;1.83;;;28.30;47.80;;;;;;5128804;27;20613;-45
2022/06/19 13:00:09;;;;;;;4.47;1.90;;;28.30;47.50;;;;;;5106278;27;20580;-48
2022/06/19 13:03:12;;;;;;;2.43;2.10;;;28.30;47.80;;;;;;5087538;27;20574;-47
2022/06/19 13:06:03;;;;;;;3.07;1.83;;;28.30;47.30;;;;;;5075862;28;20938;-47
2022/06/19 13:08:52;;;;;;;2.93;1.83;;;28.30;47.40;;;;;;5091782;27;20650;-47
2022/06/19 13:11:44;;;;;;;2.67;2.23;;;28.30;47.30;;;;;;5062927;27;20546;-47
2022/06/19 13:14:57;;;;;;;2.30;1.80;;;28.30;47.20;;;;;;5084585;28;20565;-67
2022/06/19 13:17:44;;;;;;;2.53;2.17;;;28.30;47.10;;;;;;5128754;27;20505;-48
2022/06/19 13:20:34;;;;;;;3.63;2.70;;;28.30;47.40;;;;;;5109469;22;22568;-49
2022/06/19 13:23:22;;;;;;;4.00;2.30;;;28.30;47.30;;;;;;5085263;27;20527;-49
2022/06/19 13:29:39;;;;;;;2.90;1.90;;;28.30;47.40;;;;;;5125492;27;20544;-50
2022/06/19 13:32:32;;;;;;;2.47;1.77;;;28.30;47.50;;;;;;5087588;27;20589;-48
2022/06/19 13:35:44;;;;;;;2.93;2.23;;;28.30;47.60;;;;;;5111800;27;20610;-49
2022/06/19 13:39:02;;;;;;;4.90;1.93;;;28.30;47.30;;;;;;5085855;27;20577;-48
2022/06/19 13:41:58;;;;;;;3.00;2.30;;;28.30;47.40;;;;;;5073119;27;20552;-50
2022/06/19 13:44:50;;;;;;;6.37;2.30;;;28.30;47.40;;;;;;5107526;27;20680;-49
2022/06/19 13:47:35;;;;;;;2.20;2.00;;;28.30;47.20;;;;;;5070107;27;20544;-48
2022/06/19 13:50:22;;;;;;;8.17;4.40;;;28.30;47.00;;;;;;5081670;27;21067;-48
2022/06/19 13:53:06;;;;;;;8.65;3.80;;;28.10;43.70;;;;;;5090536;27;20507;-47
2022/06/19 13:55:58;;;;;;;5.17;3.27;;;27.90;43.00;;;;;;5072799;27;20574;-50
2022/06/19 13:58:53;;;;;;;6.50;3.43;;;27.80;45.10;;;;;;5101350;27;20533;-48
2022/06/19 14:01:43;;;;;;;8.45;3.60;;;27.80;42.60;;;;;;5065761;28;20481;-71
2022/06/19 14:04:56;;;;;;;7.13;3.47;;;27.60;41.40;;;;;;5148862;27;20535;-51
2022/06/19 14:08:09;;;;;;;6.83;3.83;;;27.60;43.40;;;;;;5130505;27;20557;-48
2022/06/19 14:10:57;;;;;;;7.13;3.05;;;27.60;45.40;;;;;;5068249;27;20412;-49
2022/06/19 14:13:44;;;;;;;6.33;2.53;;;27.70;44.40;;;;;;5069158;28;20591;-49
2022/06/19 14:16:33;;;;;;;7.60;2.60;;;27.80;44.60;;;;;;5065094;28;20603;-48
2022/06/19 14:19:20;;;;;;;4.53;2.83;;;27.80;44.50;;;;;;5110345;27;20628;-49
2022/06/19 14:22:13;;;;;;;3.10;2.10;;;27.90;45.90;;;;;;5076703;27;20570;-50
2022/06/19 14:25:04;;;;;;;5.37;3.40;;;28.00;44.30;;;;;;5085225;28;20582;-50
2022/06/19 14:27:58;;;;;;;5.77;2.70;;;28.00;44.70;;;;;;5149255;27;20651;-48
2022/06/19 14:30:44;;;;;;;5.77;3.07;;;28.00;44.70;;;;;;5090028;27;20604;-49
2022/06/19 14:33:43;;;;;;;7.43;3.37;;;28.00;44.90;;;;;;5129529;27;20517;-50
2022/06/19 14:36:29;;;;;;;6.87;2.37;;;28.00;44.90;;;;;;5073008;28;20927;-48